sensor_id;sensor_type;location;lat;lon;timestamp;P1;durP1;ratioP1;P2;durP2;ratioP2
9722;SDS011;4900;49.306;8.500;2022-11-20T00:02:37;15.90;;;11.30;;
9722;SDS011;4900;49.306;8.500;2022-11-20T00:05:39;13.63;;;10.33;;
9722;SDS011;4900;49.306;8.500;2022-11-20T00:08:42;16.73;;;11.00;;
9722;SDS011;4900;49.306;8.500;2022-11-20T00:11:46;14.03;;;10.43;;
9722;SDS011;4900;49.306;8.500;2022-11-20T00:14:49;13.23;;;9.27;;
9722;SDS011;4900;49.306;8.500;2022-11-20T00:17:52;15.83;;;11.40;;
9722;SDS011;4900;49.306;8.500;2022-11-20T00:21:09;14.83;;;10.87;;
9722;SDS011;4900;49.306;8.500;2022-11-20T00:24:15;13.97;;;9.40;;
9722;SDS011;4900;49.306;8.500;2022-11-20T00:27:18;11.77;;;9.37;;
9722;SDS011;4900;49.306;8.500;2022-11-20T00:30:25;11.83;;;9.17;;
9722;SDS011;4900;49.306;8.500;2022-11-20T00:33:28;13.47;;;10.27;;
9722;SDS011;4900;49.306;8.500;2022-11-20T00:36:32;13.87;;;9.83;;
9722;SDS011;4900;49.306;8.500;2022-11-20T00:39:37;12.30;;;9.27;;
9722;SDS011;4900;49.306;8.500;2022-11-20T00:42:40;14.77;;;10.07;;
9722;SDS011;4900;49.306;8.500;2022-11-20T00:45:42;15.87;;;9.63;;
9722;SDS011;4900;49.306;8.500;2022-11-20T00:48:48;15.77;;;10.30;;
9722;SDS011;4900;49.306;8.500;2022-11-20T00:51:51;13.40;;;9.77;;
9722;SDS011;4900;49.306;8.500;2022-11-20T00:54:54;11.07;;;8.37;;
9722;SDS011;4900;49.306;8.500;2022-11-20T00:58:00;12.80;;;9.37;;
9722;SDS011;4900;49.306;8.500;2022-11-20T01:01:05;12.90;;;9.33;;
9722;SDS011;4900;49.306;8.500;2022-11-20T01:04:30;13.67;;;9.50;;
9722;SDS011;4900;49.306;8.500;2022-11-20T01:07:33;11.47;;;8.73;;
9722;SDS011;4900;49.306;8.500;2022-11-20T01:10:37;14.87;;;9.37;;
9722;SDS011;4900;49.306;8.500;2022-11-20T01:13:41;13.13;;;8.87;;
9722;SDS011;4900;49.306;8.500;2022-11-20T01:16:49;11.93;;;9.07;;
9722;SDS011;4900;49.306;8.500;2022-11-20T01:19:53;11.83;;;9.10;;
9722;SDS011;4900;49.306;8.500;2022-11-20T01:22:56;14.03;;;9.57;;
9722;SDS011;4900;49.306;8.500;2022-11-20T01:26:00;12.90;;;9.37;;
9722;SDS011;4900;49.306;8.500;2022-11-20T01:29:05;14.93;;;10.67;;
9722;SDS011;4900;49.306;8.500;2022-11-20T01:32:09;17.30;;;11.80;;
9722;SDS011;4900;49.306;8.500;2022-11-20T01:35:15;20.77;;;13.20;;
9722;SDS011;4900;49.306;8.500;2022-11-20T01:38:18;21.00;;;13.23;;
9722;SDS011;4900;49.306;8.500;2022-11-20T01:41:23;23.77;;;15.20;;
9722;SDS011;4900;49.306;8.500;2022-11-20T01:44:54;17.07;;;11.67;;
9722;SDS011;4900;49.306;8.500;2022-11-20T01:47:57;19.70;;;13.23;;
9722;SDS011;4900;49.306;8.500;2022-11-20T01:51:00;19.60;;;12.63;;
9722;SDS011;4900;49.306;8.500;2022-11-20T01:54:06;21.13;;;13.50;;
9722;SDS011;4900;49.306;8.500;2022-11-20T01:57:14;20.43;;;13.80;;
9722;SDS011;4900;49.306;8.500;2022-11-20T02:00:23;21.30;;;14.17;;
9722;SDS011;4900;49.306;8.500;2022-11-20T02:03:26;19.13;;;12.83;;
9722;SDS011;4900;49.306;8.500;2022-11-20T02:06:32;22.37;;;14.73;;
9722;SDS011;4900;49.306;8.500;2022-11-20T02:09:40;25.20;;;16.23;;
9722;SDS011;4900;49.306;8.500;2022-11-20T02:12:43;21.60;;;14.13;;
9722;SDS011;4900;49.306;8.500;2022-11-20T02:16:08;19.47;;;13.13;;
9722;SDS011;4900;49.306;8.500;2022-11-20T02:19:23;21.93;;;13.57;;
9722;SDS011;4900;49.306;8.500;2022-11-20T02:22:30;24.40;;;14.10;;
9722;SDS011;4900;49.306;8.500;2022-11-20T02:25:41;21.93;;;13.57;;
9722;SDS011;4900;49.306;8.500;2022-11-20T02:28:47;21.07;;;13.60;;
9722;SDS011;4900;49.306;8.500;2022-11-20T02:31:50;18.50;;;12.63;;
9722;SDS011;4900;49.306;8.500;2022-11-20T02:34:55;19.83;;;12.63;;
9722;SDS011;4900;49.306;8.500;2022-11-20T02:38:00;19.00;;;12.43;;
9722;SDS011;4900;49.306;8.500;2022-11-20T02:41:04;18.23;;;12.70;;
9722;SDS011;4900;49.306;8.500;2022-11-20T02:44:07;16.50;;;11.07;;
9722;SDS011;4900;49.306;8.500;2022-11-20T02:47:11;19.23;;;11.97;;
9722;SDS011;4900;49.306;8.500;2022-11-20T02:50:14;17.30;;;11.83;;
9722;SDS011;4900;49.306;8.500;2022-11-20T02:53:17;16.23;;;11.03;;
9722;SDS011;4900;49.306;8.500;2022-11-20T02:56:20;16.00;;;11.00;;
9722;SDS011;4900;49.306;8.500;2022-11-20T02:59:23;16.97;;;10.80;;
9722;SDS011;4900;49.306;8.500;2022-11-20T03:02:30;15.53;;;10.63;;
9722;SDS011;4900;49.306;8.500;2022-11-20T03:05:33;15.87;;;10.80;;
9722;SDS011;4900;49.306;8.500;2022-11-20T03:08:37;15.10;;;10.47;;
9722;SDS011;4900;49.306;8.500;2022-11-20T03:11:40;15.77;;;11.00;;
9722;SDS011;4900;49.306;8.500;2022-11-20T03:14:43;14.17;;;9.83;;
9722;SDS011;4900;49.306;8.500;2022-11-20T03:17:45;17.33;;;9.83;;
9722;SDS011;4900;49.306;8.500;2022-11-20T03:20:49;16.53;;;10.47;;
9722;SDS011;4900;49.306;8.500;2022-11-20T03:23:52;15.20;;;10.07;;
9722;SDS011;4900;49.306;8.500;2022-11-20T03:26:56;17.27;;;11.43;;
9722;SDS011;4900;49.306;8.500;2022-11-20T03:29:59;20.53;;;12.87;;
9722;SDS011;4900;49.306;8.500;2022-11-20T03:33:02;18.70;;;12.10;;
9722;SDS011;4900;49.306;8.500;2022-11-20T03:36:06;18.30;;;11.00;;
9722;SDS011;4900;49.306;8.500;2022-11-20T03:39:10;17.70;;;11.83;;
9722;SDS011;4900;49.306;8.500;2022-11-20T03:42:14;22.83;;;13.97;;
9722;SDS011;4900;49.306;8.500;2022-11-20T03:45:36;24.13;;;14.70;;
9722;SDS011;4900;49.306;8.500;2022-11-20T03:48:39;27.90;;;15.90;;
9722;SDS011;4900;49.306;8.500;2022-11-20T03:51:42;22.40;;;13.90;;
9722;SDS011;4900;49.306;8.500;2022-11-20T03:54:45;19.93;;;12.70;;
9722;SDS011;4900;49.306;8.500;2022-11-20T03:57:48;20.93;;;12.73;;
9722;SDS011;4900;49.306;8.500;2022-11-20T04:00:51;20.67;;;13.03;;
9722;SDS011;4900;49.306;8.500;2022-11-20T04:03:54;17.27;;;11.00;;
9722;SDS011;4900;49.306;8.500;2022-11-20T04:06:58;20.00;;;12.33;;
9722;SDS011;4900;49.306;8.500;2022-11-20T04:10:01;20.30;;;12.97;;
9722;SDS011;4900;49.306;8.500;2022-11-20T04:13:05;19.27;;;12.17;;
9722;SDS011;4900;49.306;8.500;2022-11-20T04:16:08;20.23;;;11.83;;
9722;SDS011;4900;49.306;8.500;2022-11-20T04:19:13;18.83;;;11.33;;
9722;SDS011;4900;49.306;8.500;2022-11-20T04:22:17;17.73;;;11.70;;
9722;SDS011;4900;49.306;8.500;2022-11-20T04:25:22;18.20;;;11.47;;
9722;SDS011;4900;49.306;8.500;2022-11-20T04:28:25;16.33;;;11.33;;
9722;SDS011;4900;49.306;8.500;2022-11-20T04:31:29;16.93;;;11.07;;
9722;SDS011;4900;49.306;8.500;2022-11-20T04:34:34;23.93;;;12.27;;
9722;SDS011;4900;49.306;8.500;2022-11-20T04:37:37;14.50;;;10.03;;
9722;SDS011;4900;49.306;8.500;2022-11-20T04:40:40;16.47;;;10.43;;
9722;SDS011;4900;49.306;8.500;2022-11-20T04:43:50;14.97;;;10.80;;
9722;SDS011;4900;49.306;8.500;2022-11-20T04:46:54;16.07;;;11.03;;
9722;SDS011;4900;49.306;8.500;2022-11-20T04:49:58;14.83;;;10.33;;
9722;SDS011;4900;49.306;8.500;2022-11-20T04:53:00;14.40;;;10.20;;
9722;SDS011;4900;49.306;8.500;2022-11-20T04:56:05;16.77;;;10.90;;
9722;SDS011;4900;49.306;8.500;2022-11-20T04:59:10;15.57;;;10.40;;
9722;SDS011;4900;49.306;8.500;2022-11-20T05:02:12;15.60;;;10.33;;
9722;SDS011;4900;49.306;8.500;2022-11-20T05:05:15;13.93;;;9.33;;
9722;SDS011;4900;49.306;8.500;2022-11-20T05:08:18;14.03;;;9.23;;
9722;SDS011;4900;49.306;8.500;2022-11-20T05:11:21;13.07;;;9.10;;
9722;SDS011;4900;49.306;8.500;2022-11-20T05:14:24;12.93;;;8.87;;
9722;SDS011;4900;49.306;8.500;2022-11-20T05:17:27;12.60;;;8.80;;
9722;SDS011;4900;49.306;8.500;2022-11-20T05:20:30;13.47;;;8.80;;
9722;SDS011;4900;49.306;8.500;2022-11-20T05:23:33;13.60;;;9.23;;
9722;SDS011;4900;49.306;8.500;2022-11-20T05:26:37;13.83;;;9.37;;
9722;SDS011;4900;49.306;8.500;2022-11-20T05:29:41;11.73;;;8.43;;
9722;SDS011;4900;49.306;8.500;2022-11-20T05:32:44;11.87;;;8.67;;
9722;SDS011;4900;49.306;8.500;2022-11-20T05:35:47;11.83;;;8.60;;
9722;SDS011;4900;49.306;8.500;2022-11-20T05:38:51;13.43;;;9.13;;
9722;SDS011;4900;49.306;8.500;2022-11-20T05:41:54;17.23;;;11.30;;
9722;SDS011;4900;49.306;8.500;2022-11-20T05:45:16;13.10;;;9.03;;
9722;SDS011;4900;49.306;8.500;2022-11-20T05:48:19;12.43;;;8.87;;
9722;SDS011;4900;49.306;8.500;2022-11-20T05:51:23;13.17;;;9.40;;
9722;SDS011;4900;49.306;8.500;2022-11-20T05:54:29;11.50;;;8.63;;
9722;SDS011;4900;49.306;8.500;2022-11-20T05:57:35;11.90;;;8.00;;
9722;SDS011;4900;49.306;8.500;2022-11-20T06:00:38;12.50;;;9.07;;
9722;SDS011;4900;49.306;8.500;2022-11-20T06:03:43;12.23;;;8.10;;
9722;SDS011;4900;49.306;8.500;2022-11-20T06:06:50;14.60;;;9.53;;
9722;SDS011;4900;49.306;8.500;2022-11-20T06:09:52;13.23;;;9.13;;
9722;SDS011;4900;49.306;8.500;2022-11-20T06:12:57;12.63;;;9.37;;
9722;SDS011;4900;49.306;8.500;2022-11-20T06:16:00;14.30;;;9.40;;
9722;SDS011;4900;49.306;8.500;2022-11-20T06:19:04;14.03;;;9.97;;
9722;SDS011;4900;49.306;8.500;2022-11-20T06:22:06;14.43;;;9.63;;
9722;SDS011;4900;49.306;8.500;2022-11-20T06:25:11;14.67;;;10.63;;
9722;SDS011;4900;49.306;8.500;2022-11-20T06:28:14;17.20;;;10.40;;
9722;SDS011;4900;49.306;8.500;2022-11-20T06:31:19;15.53;;;10.50;;
9722;SDS011;4900;49.306;8.500;2022-11-20T06:34:23;13.73;;;9.70;;
9722;SDS011;4900;49.306;8.500;2022-11-20T06:37:26;14.73;;;10.13;;
9722;SDS011;4900;49.306;8.500;2022-11-20T06:40:29;15.80;;;10.43;;
9722;SDS011;4900;49.306;8.500;2022-11-20T06:43:32;15.60;;;10.43;;
9722;SDS011;4900;49.306;8.500;2022-11-20T06:46:35;15.83;;;10.40;;
9722;SDS011;4900;49.306;8.500;2022-11-20T06:49:38;14.70;;;9.87;;
9722;SDS011;4900;49.306;8.500;2022-11-20T06:52:42;14.27;;;10.60;;
9722;SDS011;4900;49.306;8.500;2022-11-20T06:55:45;16.50;;;10.90;;
9722;SDS011;4900;49.306;8.500;2022-11-20T06:58:50;16.93;;;11.67;;
9722;SDS011;4900;49.306;8.500;2022-11-20T07:01:53;15.97;;;11.03;;
9722;SDS011;4900;49.306;8.500;2022-11-20T07:04:56;16.77;;;11.20;;
9722;SDS011;4900;49.306;8.500;2022-11-20T07:08:01;15.40;;;10.43;;
9722;SDS011;4900;49.306;8.500;2022-11-20T07:11:05;15.93;;;10.67;;
9722;SDS011;4900;49.306;8.500;2022-11-20T07:14:09;16.87;;;10.67;;
9722;SDS011;4900;49.306;8.500;2022-11-20T07:17:13;15.40;;;10.07;;
9722;SDS011;4900;49.306;8.500;2022-11-20T07:20:16;13.33;;;9.00;;
9722;SDS011;4900;49.306;8.500;2022-11-20T07:23:19;13.37;;;9.63;;
9722;SDS011;4900;49.306;8.500;2022-11-20T07:26:23;14.67;;;9.63;;
9722;SDS011;4900;49.306;8.500;2022-11-20T07:29:26;13.10;;;8.90;;
9722;SDS011;4900;49.306;8.500;2022-11-20T07:32:29;12.17;;;8.90;;
9722;SDS011;4900;49.306;8.500;2022-11-20T07:35:32;10.50;;;7.70;;
9722;SDS011;4900;49.306;8.500;2022-11-20T07:38:36;9.67;;;7.57;;
9722;SDS011;4900;49.306;8.500;2022-11-20T07:41:40;12.73;;;8.43;;
9722;SDS011;4900;49.306;8.500;2022-11-20T07:44:46;9.33;;;7.37;;
9722;SDS011;4900;49.306;8.500;2022-11-20T07:47:49;8.57;;;6.07;;
9722;SDS011;4900;49.306;8.500;2022-11-20T07:50:53;10.23;;;6.70;;
9722;SDS011;4900;49.306;8.500;2022-11-20T07:53:59;9.33;;;6.53;;
9722;SDS011;4900;49.306;8.500;2022-11-20T07:57:04;7.80;;;6.37;;
9722;SDS011;4900;49.306;8.500;2022-11-20T08:00:08;9.80;;;7.03;;
9722;SDS011;4900;49.306;8.500;2022-11-20T08:03:13;8.43;;;6.47;;
9722;SDS011;4900;49.306;8.500;2022-11-20T08:06:16;9.77;;;6.43;;
9722;SDS011;4900;49.306;8.500;2022-11-20T08:09:20;9.57;;;6.80;;
9722;SDS011;4900;49.306;8.500;2022-11-20T08:12:23;8.00;;;6.13;;
9722;SDS011;4900;49.306;8.500;2022-11-20T08:15:47;7.47;;;5.87;;
9722;SDS011;4900;49.306;8.500;2022-11-20T08:18:53;9.73;;;6.03;;
9722;SDS011;4900;49.306;8.500;2022-11-20T08:21:57;8.13;;;6.27;;
9722;SDS011;4900;49.306;8.500;2022-11-20T08:25:00;8.53;;;6.73;;
9722;SDS011;4900;49.306;8.500;2022-11-20T08:28:06;9.07;;;6.27;;
9722;SDS011;4900;49.306;8.500;2022-11-20T08:31:11;9.00;;;6.07;;
9722;SDS011;4900;49.306;8.500;2022-11-20T08:34:14;7.47;;;6.13;;
9722;SDS011;4900;49.306;8.500;2022-11-20T08:37:17;6.97;;;5.63;;
9722;SDS011;4900;49.306;8.500;2022-11-20T08:40:21;7.83;;;6.00;;
9722;SDS011;4900;49.306;8.500;2022-11-20T08:43:24;8.50;;;6.80;;
9722;SDS011;4900;49.306;8.500;2022-11-20T08:46:28;7.70;;;6.80;;
9722;SDS011;4900;49.306;8.500;2022-11-20T08:49:39;8.80;;;6.37;;
9722;SDS011;4900;49.306;8.500;2022-11-20T08:52:42;8.53;;;5.87;;
9722;SDS011;4900;49.306;8.500;2022-11-20T08:55:45;8.37;;;6.47;;
9722;SDS011;4900;49.306;8.500;2022-11-20T08:58:49;9.00;;;6.10;;
9722;SDS011;4900;49.306;8.500;2022-11-20T09:01:53;6.73;;;5.90;;
9722;SDS011;4900;49.306;8.500;2022-11-20T09:04:57;6.10;;;5.40;;
9722;SDS011;4900;49.306;8.500;2022-11-20T09:07:59;7.10;;;5.83;;
9722;SDS011;4900;49.306;8.500;2022-11-20T09:11:02;6.40;;;5.67;;
9722;SDS011;4900;49.306;8.500;2022-11-20T09:14:06;7.07;;;6.07;;
9722;SDS011;4900;49.306;8.500;2022-11-20T09:17:12;8.80;;;5.73;;
9722;SDS011;4900;49.306;8.500;2022-11-20T09:20:18;8.37;;;6.57;;
9722;SDS011;4900;49.306;8.500;2022-11-20T09:23:21;8.67;;;5.90;;
9722;SDS011;4900;49.306;8.500;2022-11-20T09:26:24;11.27;;;7.20;;
9722;SDS011;4900;49.306;8.500;2022-11-20T09:29:27;9.57;;;6.90;;
9722;SDS011;4900;49.306;8.500;2022-11-20T09:32:30;9.87;;;7.50;;
9722;SDS011;4900;49.306;8.500;2022-11-20T09:35:33;9.60;;;6.90;;
9722;SDS011;4900;49.306;8.500;2022-11-20T09:38:36;9.47;;;7.30;;
9722;SDS011;4900;49.306;8.500;2022-11-20T09:52:05;8.70;;;6.30;;
9722;SDS011;4900;49.306;8.500;2022-11-20T09:55:33;6.87;;;5.90;;
9722;SDS011;4900;49.306;8.500;2022-11-20T09:58:50;7.33;;;5.73;;
9722;SDS011;4900;49.306;8.500;2022-11-20T10:01:54;9.43;;;7.60;;
9722;SDS011;4900;49.306;8.500;2022-11-20T10:05:03;8.13;;;6.33;;
9722;SDS011;4900;49.306;8.500;2022-11-20T10:08:22;9.30;;;6.47;;
9722;SDS011;4900;49.306;8.500;2022-11-20T10:25:01;7.30;;;6.00;;
9722;SDS011;4900;49.306;8.500;2022-11-20T10:31:54;6.87;;;4.47;;
9722;SDS011;4900;49.306;8.500;2022-11-20T10:38:50;4.33;;;3.90;;
9722;SDS011;4900;49.306;8.500;2022-11-20T10:41:58;5.57;;;4.33;;
9722;SDS011;4900;49.306;8.500;2022-11-20T10:45:39;4.87;;;3.80;;
9722;SDS011;4900;49.306;8.500;2022-11-20T10:48:39;5.33;;;4.03;;
9722;SDS011;4900;49.306;8.500;2022-11-20T10:58:37;5.80;;;4.27;;
9722;SDS011;4900;49.306;8.500;2022-11-20T11:01:41;6.03;;;3.97;;
9722;SDS011;4900;49.306;8.500;2022-11-20T11:04:46;3.83;;;3.30;;
9722;SDS011;4900;49.306;8.500;2022-11-20T11:07:55;3.47;;;2.80;;
9722;SDS011;4900;49.306;8.500;2022-11-20T11:11:00;4.27;;;2.90;;
9722;SDS011;4900;49.306;8.500;2022-11-20T11:14:12;4.03;;;3.40;;
9722;SDS011;4900;49.306;8.500;2022-11-20T11:17:30;4.20;;;3.57;;
9722;SDS011;4900;49.306;8.500;2022-11-20T11:20:35;3.30;;;2.90;;
9722;SDS011;4900;49.306;8.500;2022-11-20T11:23:39;5.20;;;2.90;;
9722;SDS011;4900;49.306;8.500;2022-11-20T11:26:50;3.70;;;2.70;;
9722;SDS011;4900;49.306;8.500;2022-11-20T11:30:16;4.30;;;2.47;;
9722;SDS011;4900;49.306;8.500;2022-11-20T11:33:22;3.00;;;2.50;;
9722;SDS011;4900;49.306;8.500;2022-11-20T11:36:25;2.67;;;2.47;;
9722;SDS011;4900;49.306;8.500;2022-11-20T11:39:28;5.30;;;2.70;;
9722;SDS011;4900;49.306;8.500;2022-11-20T11:42:33;2.30;;;2.10;;
9722;SDS011;4900;49.306;8.500;2022-11-20T11:45:37;4.53;;;2.37;;
9722;SDS011;4900;49.306;8.500;2022-11-20T11:48:39;2.37;;;2.17;;
9722;SDS011;4900;49.306;8.500;2022-11-20T11:51:58;2.20;;;2.00;;
9722;SDS011;4900;49.306;8.500;2022-11-20T12:01:50;2.77;;;2.20;;
9722;SDS011;4900;49.306;8.500;2022-11-20T12:08:29;3.23;;;2.20;;
9722;SDS011;4900;49.306;8.500;2022-11-20T12:11:45;3.20;;;2.17;;
9722;SDS011;4900;49.306;8.500;2022-11-20T12:14:55;4.45;;;2.33;;
9722;SDS011;4900;49.306;8.500;2022-11-20T12:17:59;2.63;;;2.08;;
9722;SDS011;4900;49.306;8.500;2022-11-20T12:31:19;3.42;;;1.88;;
9722;SDS011;4900;49.306;8.500;2022-11-20T12:34:52;5.10;;;2.10;;
9722;SDS011;4900;49.306;8.500;2022-11-20T12:45:10;3.90;;;2.50;;
9722;SDS011;4900;49.306;8.500;2022-11-20T12:51:58;7.18;;;2.28;;
9722;SDS011;4900;49.306;8.500;2022-11-20T12:55:50;4.45;;;2.20;;
9722;SDS011;4900;49.306;8.500;2022-11-20T13:09:20;3.55;;;1.70;;
9722;SDS011;4900;49.306;8.500;2022-11-20T13:12:28;3.97;;;1.80;;
9722;SDS011;4900;49.306;8.500;2022-11-20T13:19:04;3.42;;;1.50;;
9722;SDS011;4900;49.306;8.500;2022-11-20T13:22:12;3.13;;;1.50;;
9722;SDS011;4900;49.306;8.500;2022-11-20T13:28:31;2.65;;;1.58;;
9722;SDS011;4900;49.306;8.500;2022-11-20T13:31:36;2.83;;;1.63;;
9722;SDS011;4900;49.306;8.500;2022-11-20T13:34:52;6.43;;;1.80;;
9722;SDS011;4900;49.306;8.500;2022-11-20T13:38:01;2.17;;;1.60;;
9722;SDS011;4900;49.306;8.500;2022-11-20T13:41:09;3.43;;;2.43;;
9722;SDS011;4900;49.306;8.500;2022-11-20T13:44:37;3.30;;;1.80;;
9722;SDS011;4900;49.306;8.500;2022-11-20T13:47:47;2.83;;;2.17;;
9722;SDS011;4900;49.306;8.500;2022-11-20T13:50:59;7.70;;;3.10;;
9722;SDS011;4900;49.306;8.500;2022-11-20T14:01:17;3.93;;;2.27;;
9722;SDS011;4900;49.306;8.500;2022-11-20T14:04:25;3.53;;;2.53;;
9722;SDS011;4900;49.306;8.500;2022-11-20T14:07:35;3.60;;;1.90;;
9722;SDS011;4900;49.306;8.500;2022-11-20T14:10:43;4.30;;;2.10;;
9722;SDS011;4900;49.306;8.500;2022-11-20T14:17:09;4.27;;;2.10;;
9722;SDS011;4900;49.306;8.500;2022-11-20T14:20:34;3.87;;;2.47;;
9722;SDS011;4900;49.306;8.500;2022-11-20T14:23:37;4.80;;;2.60;;
9722;SDS011;4900;49.306;8.500;2022-11-20T14:26:44;4.57;;;2.50;;
9722;SDS011;4900;49.306;8.500;2022-11-20T14:29:49;5.10;;;2.77;;
9722;SDS011;4900;49.306;8.500;2022-11-20T14:32:54;4.13;;;2.17;;
9722;SDS011;4900;49.306;8.500;2022-11-20T14:36:00;4.33;;;2.50;;
9722;SDS011;4900;49.306;8.500;2022-11-20T14:39:04;2.60;;;2.10;;
9722;SDS011;4900;49.306;8.500;2022-11-20T14:42:17;2.57;;;1.97;;
9722;SDS011;4900;49.306;8.500;2022-11-20T14:45:22;2.83;;;1.80;;
9722;SDS011;4900;49.306;8.500;2022-11-20T14:48:28;3.87;;;1.90;;
9722;SDS011;4900;49.306;8.500;2022-11-20T14:51:37;4.70;;;2.10;;
9722;SDS011;4900;49.306;8.500;2022-11-20T14:54:45;4.13;;;2.00;;
9722;SDS011;4900;49.306;8.500;2022-11-20T14:57:54;2.63;;;1.70;;
9722;SDS011;4900;49.306;8.500;2022-11-20T15:01:06;4.33;;;2.40;;
9722;SDS011;4900;49.306;8.500;2022-11-20T15:04:10;3.90;;;2.23;;
9722;SDS011;4900;49.306;8.500;2022-11-20T15:07:23;2.83;;;1.93;;
9722;SDS011;4900;49.306;8.500;2022-11-20T15:10:27;4.20;;;2.00;;
9722;SDS011;4900;49.306;8.500;2022-11-20T15:16:40;3.07;;;2.30;;
9722;SDS011;4900;49.306;8.500;2022-11-20T15:19:43;4.83;;;2.40;;
9722;SDS011;4900;49.306;8.500;2022-11-20T15:22:46;4.10;;;2.90;;
9722;SDS011;4900;49.306;8.500;2022-11-20T15:25:49;4.40;;;2.93;;
9722;SDS011;4900;49.306;8.500;2022-11-20T15:28:53;8.07;;;3.97;;
9722;SDS011;4900;49.306;8.500;2022-11-20T15:31:57;5.83;;;2.87;;
9722;SDS011;4900;49.306;8.500;2022-11-20T15:35:00;4.10;;;2.70;;
9722;SDS011;4900;49.306;8.500;2022-11-20T15:38:03;5.43;;;2.63;;
9722;SDS011;4900;49.306;8.500;2022-11-20T15:41:07;9.07;;;4.00;;
9722;SDS011;4900;49.306;8.500;2022-11-20T15:44:10;20.90;;;11.27;;
9722;SDS011;4900;49.306;8.500;2022-11-20T15:47:13;12.70;;;7.73;;
9722;SDS011;4900;49.306;8.500;2022-11-20T15:50:16;6.90;;;4.60;;
9722;SDS011;4900;49.306;8.500;2022-11-20T15:53:20;7.00;;;4.90;;
9722;SDS011;4900;49.306;8.500;2022-11-20T15:56:23;7.57;;;4.87;;
9722;SDS011;4900;49.306;8.500;2022-11-20T15:59:27;6.73;;;3.57;;
9722;SDS011;4900;49.306;8.500;2022-11-20T16:02:29;8.87;;;4.50;;
9722;SDS011;4900;49.306;8.500;2022-11-20T16:05:32;8.90;;;4.60;;
9722;SDS011;4900;49.306;8.500;2022-11-20T16:08:36;6.77;;;4.60;;
9722;SDS011;4900;49.306;8.500;2022-11-20T16:11:39;5.63;;;3.57;;
9722;SDS011;4900;49.306;8.500;2022-11-20T16:14:42;6.17;;;4.47;;
9722;SDS011;4900;49.306;8.500;2022-11-20T16:18:04;8.40;;;3.70;;
9722;SDS011;4900;49.306;8.500;2022-11-20T16:21:10;5.47;;;4.13;;
9722;SDS011;4900;49.306;8.500;2022-11-20T16:24:15;6.53;;;5.33;;
9722;SDS011;4900;49.306;8.500;2022-11-20T16:27:18;8.30;;;6.57;;
9722;SDS011;4900;49.306;8.500;2022-11-20T16:30:22;5.30;;;4.37;;
9722;SDS011;4900;49.306;8.500;2022-11-20T16:33:25;7.00;;;4.50;;
9722;SDS011;4900;49.306;8.500;2022-11-20T16:36:28;5.00;;;3.27;;
9722;SDS011;4900;49.306;8.500;2022-11-20T16:39:32;6.97;;;5.77;;
9722;SDS011;4900;49.306;8.500;2022-11-20T16:42:35;5.37;;;3.80;;
9722;SDS011;4900;49.306;8.500;2022-11-20T16:45:39;6.53;;;4.20;;
9722;SDS011;4900;49.306;8.500;2022-11-20T16:48:43;5.73;;;3.97;;
9722;SDS011;4900;49.306;8.500;2022-11-20T16:51:46;7.90;;;4.23;;
9722;SDS011;4900;49.306;8.500;2022-11-20T16:54:49;6.87;;;4.50;;
9722;SDS011;4900;49.306;8.500;2022-11-20T16:57:52;6.50;;;3.70;;
9722;SDS011;4900;49.306;8.500;2022-11-20T17:00:55;6.90;;;4.47;;
9722;SDS011;4900;49.306;8.500;2022-11-20T17:04:02;5.80;;;3.20;;
9722;SDS011;4900;49.306;8.500;2022-11-20T17:07:06;6.67;;;3.73;;
9722;SDS011;4900;49.306;8.500;2022-11-20T17:10:10;5.17;;;3.43;;
9722;SDS011;4900;49.306;8.500;2022-11-20T17:13:13;6.60;;;3.90;;
9722;SDS011;4900;49.306;8.500;2022-11-20T17:16:17;4.83;;;3.67;;
9722;SDS011;4900;49.306;8.500;2022-11-20T17:19:22;4.93;;;3.40;;
9722;SDS011;4900;49.306;8.500;2022-11-20T17:22:26;6.43;;;3.93;;
9722;SDS011;4900;49.306;8.500;2022-11-20T17:25:31;6.97;;;4.40;;
9722;SDS011;4900;49.306;8.500;2022-11-20T17:28:35;7.33;;;4.90;;
9722;SDS011;4900;49.306;8.500;2022-11-20T17:31:39;8.23;;;5.90;;
9722;SDS011;4900;49.306;8.500;2022-11-20T17:34:42;5.70;;;3.90;;
9722;SDS011;4900;49.306;8.500;2022-11-20T17:37:45;7.30;;;4.03;;
9722;SDS011;4900;49.306;8.500;2022-11-20T17:40:48;3.57;;;2.27;;
9722;SDS011;4900;49.306;8.500;2022-11-20T17:43:52;2.83;;;1.90;;
9722;SDS011;4900;49.306;8.500;2022-11-20T17:46:57;3.07;;;2.30;;
9722;SDS011;4900;49.306;8.500;2022-11-20T17:50:00;4.67;;;2.70;;
9722;SDS011;4900;49.306;8.500;2022-11-20T17:53:03;4.20;;;2.80;;
9722;SDS011;4900;49.306;8.500;2022-11-20T17:56:06;6.80;;;3.10;;
9722;SDS011;4900;49.306;8.500;2022-11-20T17:59:28;3.87;;;2.63;;
9722;SDS011;4900;49.306;8.500;2022-11-20T18:02:31;4.70;;;3.07;;
9722;SDS011;4900;49.306;8.500;2022-11-20T18:05:34;5.40;;;3.40;;
9722;SDS011;4900;49.306;8.500;2022-11-20T18:08:38;3.67;;;2.60;;
9722;SDS011;4900;49.306;8.500;2022-11-20T18:11:41;3.80;;;2.77;;
9722;SDS011;4900;49.306;8.500;2022-11-20T18:14:45;5.37;;;2.50;;
9722;SDS011;4900;49.306;8.500;2022-11-20T18:17:50;4.37;;;2.80;;
9722;SDS011;4900;49.306;8.500;2022-11-20T18:20:53;5.53;;;3.07;;
9722;SDS011;4900;49.306;8.500;2022-11-20T18:23:56;4.70;;;2.60;;
9722;SDS011;4900;49.306;8.500;2022-11-20T18:27:00;3.57;;;2.23;;
9722;SDS011;4900;49.306;8.500;2022-11-20T18:30:04;4.37;;;2.10;;
9722;SDS011;4900;49.306;8.500;2022-11-20T18:33:07;4.57;;;2.27;;
9722;SDS011;4900;49.306;8.500;2022-11-20T18:36:14;6.77;;;3.50;;
9722;SDS011;4900;49.306;8.500;2022-11-20T18:39:20;4.73;;;2.90;;
9722;SDS011;4900;49.306;8.500;2022-11-20T18:42:23;3.33;;;2.70;;
9722;SDS011;4900;49.306;8.500;2022-11-20T18:45:45;2.97;;;2.50;;
9722;SDS011;4900;49.306;8.500;2022-11-20T18:48:48;4.03;;;2.40;;
9722;SDS011;4900;49.306;8.500;2022-11-20T18:51:51;3.27;;;2.20;;
9722;SDS011;4900;49.306;8.500;2022-11-20T18:54:54;3.33;;;2.00;;
9722;SDS011;4900;49.306;8.500;2022-11-20T18:57:58;2.97;;;2.03;;
9722;SDS011;4900;49.306;8.500;2022-11-20T19:09:21;3.00;;;2.20;;
9722;SDS011;4900;49.306;8.500;2022-11-20T19:12:25;4.13;;;2.23;;
9722;SDS011;4900;49.306;8.500;2022-11-20T19:15:28;2.90;;;2.10;;
9722;SDS011;4900;49.306;8.500;2022-11-20T19:18:31;4.53;;;2.53;;
9722;SDS011;4900;49.306;8.500;2022-11-20T19:21:33;3.93;;;2.50;;
9722;SDS011;4900;49.306;8.500;2022-11-20T19:24:36;5.37;;;2.87;;
9722;SDS011;4900;49.306;8.500;2022-11-20T19:27:40;3.57;;;2.90;;
9722;SDS011;4900;49.306;8.500;2022-11-20T19:30:43;5.17;;;3.10;;
9722;SDS011;4900;49.306;8.500;2022-11-20T19:33:46;3.00;;;2.37;;
9722;SDS011;4900;49.306;8.500;2022-11-20T19:36:49;3.33;;;2.37;;
9722;SDS011;4900;49.306;8.500;2022-11-20T19:39:54;4.60;;;2.30;;
9722;SDS011;4900;49.306;8.500;2022-11-20T19:43:00;5.33;;;2.40;;
9722;SDS011;4900;49.306;8.500;2022-11-20T19:46:07;2.97;;;2.13;;
9722;SDS011;4900;49.306;8.500;2022-11-20T19:49:11;3.77;;;2.27;;
9722;SDS011;4900;49.306;8.500;2022-11-20T19:52:15;2.93;;;2.50;;
9722;SDS011;4900;49.306;8.500;2022-11-20T19:55:18;3.43;;;2.20;;
9722;SDS011;4900;49.306;8.500;2022-11-20T19:58:21;4.33;;;2.53;;
9722;SDS011;4900;49.306;8.500;2022-11-20T20:01:25;3.90;;;2.40;;
9722;SDS011;4900;49.306;8.500;2022-11-20T20:04:30;3.43;;;2.33;;
9722;SDS011;4900;49.306;8.500;2022-11-20T20:07:34;2.83;;;2.00;;
9722;SDS011;4900;49.306;8.500;2022-11-20T20:10:37;3.17;;;2.30;;
9722;SDS011;4900;49.306;8.500;2022-11-20T20:13:40;3.37;;;2.30;;
9722;SDS011;4900;49.306;8.500;2022-11-20T20:16:44;5.77;;;2.60;;
9722;SDS011;4900;49.306;8.500;2022-11-20T20:19:47;2.43;;;2.20;;
9722;SDS011;4900;49.306;8.500;2022-11-20T20:22:50;2.97;;;2.47;;
9722;SDS011;4900;49.306;8.500;2022-11-20T20:25:53;2.60;;;2.23;;
9722;SDS011;4900;49.306;8.500;2022-11-20T20:28:57;4.60;;;2.07;;
9722;SDS011;4900;49.306;8.500;2022-11-20T20:32:00;2.60;;;2.10;;
9722;SDS011;4900;49.306;8.500;2022-11-20T20:35:04;4.30;;;2.10;;
9722;SDS011;4900;49.306;8.500;2022-11-20T20:38:08;3.30;;;2.73;;
9722;SDS011;4900;49.306;8.500;2022-11-20T20:41:11;3.50;;;2.33;;
9722;SDS011;4900;49.306;8.500;2022-11-20T20:44:15;3.70;;;2.53;;
9722;SDS011;4900;49.306;8.500;2022-11-20T20:47:37;3.83;;;2.40;;
9722;SDS011;4900;49.306;8.500;2022-11-20T20:50:51;3.37;;;2.50;;